Time;durP1;ratioP1;P1;durP2;ratioP2;P2;SDS_P1;SDS_P2;PMS_P1;PMS_P2;Temp;Humidity;BMP_temperature;BMP_pressure;BME280_temperature;BME280_humidity;BME280_pressure;Samples;Min_cycle;Max_cycle;Signal;HPM_P1;HPM_P2
2021/06/09 00:01:15;;;;;;;19.40;17.50;;;16.90;99.90;;;;;;5072783;28;20236;-58
2021/06/09 00:03:41;;;;;;;19.13;17.43;;;16.90;99.90;;;;;;5072478;28;20216;-57
2021/06/09 00:06:07;;;;;;;19.70;17.90;;;17.00;99.90;;;;;;5072619;28;20648;-58
2021/06/09 00:08:34;;;;;;;19.50;17.70;;;17.00;99.90;;;;;;5072485;28;20205;-59
2021/06/09 00:11:00;;;;;;;20.63;18.73;;;17.10;99.90;;;;;;5072168;28;20220;-60
2021/06/09 00:13:30;;;;;;;20.63;18.83;;;17.10;99.90;;;;;;5072570;28;20257;-58
2021/06/09 00:16:01;;;;;;;19.93;18.13;;;17.10;99.90;;;;;;5072572;28;20539;-57
2021/06/09 00:18:28;;;;;;;19.70;17.80;;;17.10;99.90;;;;;;5072129;28;20599;-60
2021/06/09 00:20:54;;;;;;;20.97;18.90;;;17.20;99.90;;;;;;5072150;28;20232;-59
2021/06/09 00:23:25;;;;;;;21.43;19.10;;;17.20;99.90;;;;;;5072150;28;20216;-58
2021/06/09 00:25:54;;;;;;;20.13;18.13;;;17.20;99.90;;;;;;5071904;28;20668;-59
2021/06/09 00:28:20;;;;;;;20.17;18.17;;;17.30;99.90;;;;;;5071901;28;20205;-57
2021/06/09 00:30:49;;;;;;;20.27;18.27;;;17.30;99.90;;;;;;5072092;28;20225;-57
2021/06/09 00:33:15;;;;;;;20.27;18.17;;;17.30;99.90;;;;;;5072017;28;20205;-58
2021/06/09 00:35:43;;;;;;;21.33;19.23;;;17.20;99.90;;;;;;5072007;28;20209;-57
2021/06/09 00:38:09;;;;;;;21.33;18.33;;;17.10;99.90;;;;;;5071842;28;20233;-58
2021/06/09 00:40:36;;;;;;;22.23;19.77;;;17.00;99.90;;;;;;5072205;28;20220;-57
2021/06/09 00:43:05;;;;;;;22.00;19.30;;;16.90;99.90;;;;;;5071927;28;20311;-60
2021/06/09 00:45:32;;;;;;;22.27;20.20;;;17.00;99.90;;;;;;5071873;28;20200;-57
2021/06/09 00:48:00;;;;;;;21.33;19.43;;;17.00;99.90;;;;;;5071644;28;20209;-59
2021/06/09 00:50:26;;;;;;;22.13;19.97;;;17.10;99.90;;;;;;5071634;28;20712;-57
2021/06/09 00:52:52;;;;;;;20.77;18.73;;;17.10;99.90;;;;;;5071476;28;20201;-58
2021/06/09 00:55:18;;;;;;;21.83;19.73;;;17.20;99.90;;;;;;5071319;28;20232;-59
2021/06/09 00:57:46;;;;;;;21.93;19.80;;;17.20;99.90;;;;;;5071643;28;20212;-58
2021/06/09 01:00:13;;;;;;;21.13;19.03;;;17.30;99.90;;;;;;5071349;28;20642;-58
2021/06/09 01:02:39;;;;;;;21.93;19.83;;;17.30;99.90;;;;;;5071389;28;20209;-58
2021/06/09 01:05:08;;;;;;;21.47;19.53;;;17.40;99.90;;;;;;5071303;28;20200;-57
2021/06/09 01:07:38;;;;;;;20.97;18.97;;;17.40;99.90;;;;;;5071372;28;20212;-58
2021/06/09 01:10:06;;;;;;;22.77;20.57;;;17.50;99.90;;;;;;5071587;28;20224;-59
2021/06/09 01:12:32;;;;;;;21.40;19.27;;;17.50;99.90;;;;;;5071134;28;20677;-57
2021/06/09 01:15:00;;;;;;;21.87;19.57;;;17.50;99.90;;;;;;5070947;28;20204;-59
2021/06/09 01:17:26;;;;;;;21.90;19.53;;;17.60;99.90;;;;;;5071183;28;20209;-58
2021/06/09 01:19:53;;;;;;;20.40;18.50;;;17.60;99.90;;;;;;5070913;28;20235;-58
2021/06/09 01:22:20;;;;;;;20.80;18.70;;;17.60;99.90;;;;;;5070472;28;20213;-59
2021/06/09 01:24:47;;;;;;;19.77;17.93;;;17.50;99.90;;;;;;5071109;28;20205;-58
2021/06/09 01:27:13;;;;;;;20.63;18.63;;;17.50;99.90;;;;;;5071291;28;20209;-57
2021/06/09 01:29:40;;;;;;;19.87;18.07;;;17.50;99.90;;;;;;5071008;28;20204;-59
2021/06/09 01:32:08;;;;;;;19.00;17.20;;;17.60;99.90;;;;;;5071010;28;20258;-57
2021/06/09 01:34:34;;;;;;;18.57;16.97;;;17.60;99.90;;;;;;5070896;28;20205;-57
2021/06/09 01:37:00;;;;;;;19.37;17.57;;;17.60;99.90;;;;;;5070800;28;20208;-57
2021/06/09 01:39:28;;;;;;;19.23;17.53;;;17.70;99.90;;;;;;5070626;28;20240;-60
2021/06/09 01:41:54;;;;;;;19.83;17.97;;;17.70;99.90;;;;;;5070951;28;20221;-57
2021/06/09 01:44:20;;;;;;;19.80;18.00;;;17.80;99.90;;;;;;5070618;28;20680;-57
2021/06/09 01:46:47;;;;;;;19.43;17.53;;;17.80;99.90;;;;;;5070964;28;20262;-57
2021/06/09 01:49:14;;;;;;;21.53;19.43;;;17.90;99.90;;;;;;5071161;28;20615;-57
2021/06/09 01:51:41;;;;;;;19.57;17.57;;;17.90;99.90;;;;;;5098582;22;20760;-58
2021/06/09 01:54:09;;;;;;;20.03;18.17;;;18.00;99.90;;;;;;5091322;28;20207;-58
2021/06/09 01:56:38;;;;;;;20.13;18.30;;;17.90;99.90;;;;;;5091452;28;20211;-58
2021/06/09 01:59:10;;;;;;;19.60;17.80;;;17.90;99.90;;;;;;5091163;28;20224;-58
2021/06/09 02:01:37;;;;;;;19.30;17.37;;;17.80;99.90;;;;;;5091480;28;20229;-58
2021/06/09 02:04:03;;;;;;;19.73;17.83;;;17.70;99.90;;;;;;5090746;28;20211;-58
2021/06/09 02:06:29;;;;;;;19.77;17.87;;;17.50;99.90;;;;;;5091272;28;20215;-58
2021/06/09 02:08:55;;;;;;;20.27;18.30;;;17.30;99.90;;;;;;5091052;28;20204;-58
2021/06/09 02:11:22;;;;;;;19.97;18.00;;;17.10;99.90;;;;;;5091106;28;20231;-59
2021/06/09 02:13:50;;;;;;;20.03;18.20;;;17.00;99.90;;;;;;5090965;28;20364;-58
2021/06/09 02:16:17;;;;;;;20.37;18.37;;;16.90;99.90;;;;;;5090817;28;20615;-58
2021/06/09 02:18:43;;;;;;;19.67;17.63;;;16.80;99.90;;;;;;5091433;28;20228;-58
2021/06/09 02:21:09;;;;;;;20.10;17.97;;;16.80;99.90;;;;;;5091106;28;20266;-58
2021/06/09 02:23:36;;;;;;;21.17;18.97;;;16.80;99.90;;;;;;5090724;28;20204;-58
2021/06/09 02:26:03;;;;;;;21.40;19.37;;;16.80;99.90;;;;;;5090872;28;20204;-58
2021/06/09 02:28:31;;;;;;;20.53;18.60;;;16.90;99.90;;;;;;5090516;28;20204;-58
2021/06/09 02:30:59;;;;;;;19.33;17.50;;;17.00;99.90;;;;;;5090320;28;20314;-58
2021/06/09 02:33:26;;;;;;;18.77;17.07;;;17.00;99.90;;;;;;5090627;28;20257;-58
2021/06/09 02:35:53;;;;;;;20.00;18.20;;;17.00;99.90;;;;;;5094511;28;20200;-59
2021/06/09 02:38:20;;;;;;;19.73;17.83;;;17.00;99.90;;;;;;5094379;28;20224;-58
2021/06/09 02:40:50;;;;;;;20.93;18.87;;;17.00;99.90;;;;;;5094302;28;20225;-58
2021/06/09 02:43:17;;;;;;;20.73;18.70;;;17.00;99.90;;;;;;5094351;28;20208;-59
2021/06/09 02:45:47;;;;;;;20.13;18.27;;;17.00;99.90;;;;;;5094084;28;20725;-58
2021/06/09 02:48:18;;;;;;;19.97;17.93;;;17.10;99.90;;;;;;5094391;28;20200;-59
2021/06/09 02:50:44;;;;;;;19.73;17.93;;;17.00;99.90;;;;;;5094331;28;20267;-58
2021/06/09 02:53:17;;;;;;;21.07;18.97;;;17.00;99.90;;;;;;5094637;28;20204;-58
2021/06/09 02:55:53;;;;;;;19.97;18.13;;;17.00;99.90;;;;;;5094293;28;20208;-57
2021/06/09 02:58:27;;;;;;;19.90;17.87;;;17.10;99.90;;;;;;5094153;28;20212;-59
2021/06/09 03:01:03;;;;;;;19.97;18.03;;;17.10;99.90;;;;;;5094373;28;20231;-60
2021/06/09 03:03:43;;;;;;;19.33;17.53;;;17.10;99.90;;;;;;5094188;28;20298;-59
2021/06/09 03:06:20;;;;;;;19.67;17.87;;;17.10;99.90;;;;;;5093956;28;20214;-59
2021/06/09 03:08:51;;;;;;;19.00;17.10;;;17.10;99.90;;;;;;5094093;28;20215;-58
2021/06/09 03:11:27;;;;;;;18.73;16.93;;;17.20;99.90;;;;;;5093966;28;20225;-59
2021/06/09 03:14:01;;;;;;;18.73;17.03;;;17.30;99.90;;;;;;5094089;28;20200;-59
2021/06/09 03:16:31;;;;;;;17.80;15.90;;;17.20;99.90;;;;;;5093887;28;20295;-59
2021/06/09 03:19:05;;;;;;;17.40;15.80;;;17.30;99.90;;;;;;5093566;28;20220;-60
2021/06/09 03:21:39;;;;;;;17.77;16.20;;;17.30;99.90;;;;;;5094040;28;20227;-60
2021/06/09 03:24:11;;;;;;;19.43;17.53;;;17.40;99.90;;;;;;5093877;28;20203;-59
2021/06/09 03:26:50;;;;;;;17.73;16.07;;;17.50;99.90;;;;;;5093881;28;20265;-60
2021/06/09 03:29:25;;;;;;;17.77;16.17;;;17.50;99.90;;;;;;5093928;28;20211;-59
2021/06/09 03:31:56;;;;;;;16.60;15.10;;;17.60;99.90;;;;;;5094280;28;20224;-60
2021/06/09 03:34:28;;;;;;;17.73;16.13;;;17.60;99.90;;;;;;5093667;28;20204;-59
2021/06/09 03:36:57;;;;;;;17.57;15.87;;;17.60;99.90;;;;;;5093545;28;20204;-58
2021/06/09 03:39:26;;;;;;;17.57;15.73;;;17.70;99.90;;;;;;5093424;28;20311;-58
2021/06/09 03:41:54;;;;;;;18.27;16.65;;;17.70;99.90;;;;;;5093280;28;20231;-59
2021/06/09 03:44:26;;;;;;;17.97;16.17;;;17.90;99.90;;;;;;5092893;28;20675;-59
2021/06/09 03:46:53;;;;;;;17.70;16.07;;;18.00;99.90;;;;;;5093150;28;20204;-60
2021/06/09 03:49:21;;;;;;;18.38;16.58;;;18.10;99.90;;;;;;5093326;28;20557;-59
2021/06/09 03:51:50;;;;;;;18.37;16.67;;;18.20;99.90;;;;;;5092831;28;20228;-59
2021/06/09 03:54:17;;;;;;;18.42;16.52;;;18.30;99.90;;;;;;5092849;28;20200;-59
2021/06/09 03:56:46;;;;;;;19.23;17.35;;;18.30;99.90;;;;;;5093002;28;20671;-59
2021/06/09 03:59:14;;;;;;;18.90;17.00;;;18.30;99.90;;;;;;5092932;28;20605;-59
2021/06/09 04:01:42;;;;;;;20.10;18.00;;;18.40;99.90;;;;;;5092789;28;20227;-59
2021/06/09 04:04:14;;;;;;;18.67;16.73;;;18.40;99.90;;;;;;5092644;28;20200;-59
2021/06/09 04:06:43;;;;;;;19.30;17.30;;;18.40;99.90;;;;;;5092718;28;20208;-59
2021/06/09 04:09:14;;;;;;;23.40;18.00;;;18.40;99.90;;;;;;5092865;28;20212;-59
2021/06/09 04:11:41;;;;;;;18.50;16.65;;;18.40;99.90;;;;;;5092549;28;20699;-60
2021/06/09 04:14:10;;;;;;;18.10;16.30;;;18.40;99.90;;;;;;5092481;28;20501;-59
2021/06/09 04:16:37;;;;;;;19.50;17.50;;;18.40;99.90;;;;;;5092941;28;20271;-59
2021/06/09 04:19:05;;;;;;;18.55;16.65;;;18.50;99.90;;;;;;5092438;28;20223;-59
2021/06/09 04:21:31;;;;;;;18.83;16.87;;;18.40;99.90;;;;;;5092772;28;20235;-59
2021/06/09 04:23:58;;;;;;;18.55;16.75;;;18.40;99.90;;;;;;5092299;28;20208;-60
2021/06/09 04:26:27;;;;;;;17.95;16.05;;;18.30;99.90;;;;;;5093081;28;20216;-60
2021/06/09 04:28:55;;;;;;;17.63;15.87;;;18.30;99.90;;;;;;5092687;28;20201;-59
2021/06/09 04:31:22;;;;;;;19.42;17.52;;;18.40;99.90;;;;;;5092564;28;20272;-59
2021/06/09 04:33:55;;;;;;;18.63;16.73;;;18.60;99.90;;;;;;5092283;28;20205;-59
2021/06/09 04:36:21;;;;;;;18.95;16.95;;;18.70;99.90;;;;;;5092458;28;20205;-59
2021/06/09 04:38:47;;;;;;;19.23;16.48;;;18.80;99.90;;;;;;5092135;28;20227;-59
2021/06/09 04:41:14;;;;;;;17.65;15.88;;;18.90;99.90;;;;;;5092295;28;20228;-58
2021/06/09 04:43:42;;;;;;;18.08;16.20;;;19.10;99.90;;;;;;5092636;28;20511;-59
2021/06/09 04:46:08;;;;;;;16.92;15.15;;;19.20;99.90;;;;;;5092207;28;20215;-60
2021/06/09 04:48:34;;;;;;;17.85;16.00;;;19.20;99.90;;;;;;5091892;28;20588;-59
2021/06/09 04:51:01;;;;;;;18.75;16.67;;;19.40;99.90;;;;;;5092015;28;20236;-60
2021/06/09 04:53:27;;;;;;;27.13;23.35;;;19.50;99.90;;;;;;5092297;28;20204;-60
2021/06/09 04:55:55;;;;;;;23.58;20.73;;;19.60;99.90;;;;;;5092257;28;20204;-60
2021/06/09 04:58:24;;;;;;;17.50;15.70;;;19.70;99.90;;;;;;5090873;28;20204;-60
2021/06/09 05:00:52;;;;;;;20.10;17.30;;;19.80;99.90;;;;;;5091453;28;20224;-59
2021/06/09 05:03:19;;;;;;;20.25;18.15;;;19.90;99.90;;;;;;5091654;28;20208;-60
2021/06/09 05:05:45;;;;;;;27.13;22.80;;;20.00;99.90;;;;;;5091670;28;20204;-60
2021/06/09 05:08:11;;;;;;;19.35;17.42;;;20.10;99.90;;;;;;5091336;28;20204;-60
2021/06/09 05:10:40;;;;;;;19.73;17.90;;;20.20;99.90;;;;;;5091356;28;20224;-60
2021/06/09 05:13:11;;;;;;;19.48;17.55;;;20.40;99.90;;;;;;5091493;28;20200;-60
2021/06/09 05:15:41;;;;;;;20.85;18.63;;;20.50;99.90;;;;;;5091056;28;20208;-60
2021/06/09 05:18:19;;;;;;;19.00;17.10;;;20.70;99.90;;;;;;5091538;28;20208;-61
2021/06/09 05:20:47;;;;;;;21.25;18.17;;;20.80;99.90;;;;;;5091427;28;20220;-60
2021/06/09 05:23:17;;;;;;;19.27;17.33;;;21.00;99.90;;;;;;5091450;28;20211;-60
2021/06/09 05:25:45;;;;;;;18.98;16.98;;;21.10;99.90;;;;;;5090905;28;20204;-60
2021/06/09 05:28:14;;;;;;;19.30;17.30;;;21.20;99.90;;;;;;5091050;28;20216;-60
2021/06/09 05:30:41;;;;;;;18.15;16.30;;;21.30;99.90;;;;;;5091283;28;20216;-60
2021/06/09 05:33:10;;;;;;;20.27;18.27;;;21.40;99.90;;;;;;5091400;28;20215;-59
2021/06/09 05:35:36;;;;;;;19.73;17.73;;;21.50;99.90;;;;;;5091206;28;20285;-60
2021/06/09 05:38:04;;;;;;;22.65;18.38;;;21.60;99.90;;;;;;5091044;28;20574;-60
2021/06/09 05:40:31;;;;;;;22.92;19.98;;;21.60;99.90;;;;;;5090719;28;20409;-60
2021/06/09 05:42:57;;;;;;;25.55;20.67;;;21.70;99.90;;;;;;5091181;28;20216;-59
2021/06/09 05:45:28;;;;;;;28.33;23.20;;;21.70;99.90;;;;;;5090874;28;20667;-61
2021/06/09 05:47:55;;;;;;;29.20;21.45;;;21.70;99.90;;;;;;5090953;28;20200;-60
2021/06/09 05:50:24;;;;;;;29.48;23.90;;;21.80;99.90;;;;;;5090970;28;20231;-60
2021/06/09 05:52:53;;;;;;;25.83;21.23;;;21.90;99.90;;;;;;5090852;28;20212;-59
2021/06/09 05:55:20;;;;;;;23.50;21.00;;;22.00;99.90;;;;;;5090799;28;20208;-59
2021/06/09 05:57:47;;;;;;;24.35;21.73;;;22.10;99.90;;;;;;5091070;28;20211;-60
2021/06/09 06:00:17;;;;;;;26.80;24.00;;;22.20;99.90;;;;;;5090790;28;20232;-60
2021/06/09 06:02:43;;;;;;;25.23;22.52;;;22.20;99.90;;;;;;5090755;28;20740;-60
2021/06/09 06:05:11;;;;;;;27.63;23.73;;;22.30;99.90;;;;;;5091048;28;20211;-60
2021/06/09 06:07:39;;;;;;;24.77;22.25;;;22.30;99.90;;;;;;5090704;28;20200;-61
2021/06/09 06:10:08;;;;;;;23.90;21.45;;;22.30;99.90;;;;;;5094909;28;20234;-60
2021/06/09 06:12:36;;;;;;;24.30;21.58;;;22.30;99.90;;;;;;5094742;28;20201;-60
2021/06/09 06:15:03;;;;;;;22.60;19.88;;;22.20;99.90;;;;;;5094813;28;20204;-60
2021/06/09 06:17:30;;;;;;;23.88;21.38;;;22.20;99.90;;;;;;5094798;28;20247;-60
2021/06/09 06:19:56;;;;;;;23.73;21.30;;;22.10;99.90;;;;;;5094593;28;20220;-60
2021/06/09 06:22:22;;;;;;;23.50;21.20;;;22.10;99.90;;;;;;5095183;28;20208;-60
2021/06/09 06:24:51;;;;;;;24.70;21.83;;;22.10;99.90;;;;;;5094820;28;20206;-60
2021/06/09 06:27:20;;;;;;;22.65;20.35;;;22.20;99.90;;;;;;5094825;28;20211;-60
2021/06/09 06:29:47;;;;;;;23.48;21.00;;;22.40;99.90;;;;;;5094577;28;20699;-61
2021/06/09 06:32:15;;;;;;;25.20;21.90;;;22.60;99.90;;;;;;5094571;28;20730;-60
2021/06/09 06:34:43;;;;;;;24.42;21.83;;;22.60;99.90;;;;;;5094612;28;20204;-60
2021/06/09 06:37:10;;;;;;;28.80;25.70;;;22.70;99.90;;;;;;5094860;28;20215;-60
2021/06/09 06:39:39;;;;;;;24.83;21.38;;;22.70;99.90;;;;;;5094209;28;20224;-60
2021/06/09 06:42:08;;;;;;;25.50;22.67;;;22.70;99.90;;;;;;5094536;28;20231;-60
2021/06/09 06:44:35;;;;;;;27.05;24.20;;;22.80;99.90;;;;;;5094136;28;20200;-60
2021/06/09 06:47:02;;;;;;;26.30;23.58;;;22.80;99.90;;;;;;5094532;28;20204;-62
2021/06/09 06:49:29;;;;;;;32.70;28.77;;;22.90;99.90;;;;;;5094101;28;20196;-60
2021/06/09 06:51:57;;;;;;;22.13;19.98;;;23.00;99.90;;;;;;5094271;28;20236;-60
2021/06/09 06:54:24;;;;;;;23.17;20.88;;;23.10;99.90;;;;;;5093960;28;20690;-60
2021/06/09 06:56:51;;;;;;;22.15;18.58;;;23.10;99.90;;;;;;5094076;28;20255;-59
2021/06/09 06:59:21;;;;;;;21.50;19.35;;;23.10;99.90;;;;;;5093934;28;20224;-60
2021/06/09 07:01:47;;;;;;;22.38;20.08;;;23.10;99.90;;;;;;5093882;28;20247;-60
2021/06/09 07:04:17;;;;;;;22.50;20.25;;;23.20;99.90;;;;;;5094118;28;20207;-60
2021/06/09 07:06:44;;;;;;;22.50;20.15;;;23.40;99.90;;;;;;5094118;28;20204;-60
2021/06/09 07:09:11;;;;;;;23.20;20.20;;;23.60;99.90;;;;;;5094070;28;20255;-61
2021/06/09 07:11:38;;;;;;;21.88;19.20;;;23.60;99.90;;;;;;5094159;28;20224;-60
2021/06/09 07:14:05;;;;;;;22.45;20.15;;;23.70;99.90;;;;;;5093646;28;20208;-61
2021/06/09 07:16:33;;;;;;;22.20;19.88;;;23.80;99.90;;;;;;5093570;28;20215;-61
2021/06/09 07:19:01;;;;;;;21.70;19.45;;;23.80;99.90;;;;;;5093680;28;20235;-59
2021/06/09 07:21:27;;;;;;;21.40;19.27;;;24.00;99.90;;;;;;5092945;28;20224;-61
2021/06/09 07:23:54;;;;;;;21.25;19.10;;;23.90;99.90;;;;;;5093605;28;20338;-61
2021/06/09 07:26:21;;;;;;;23.67;19.75;;;24.00;99.90;;;;;;5093623;28;20575;-61
2021/06/09 07:28:50;;;;;;;25.08;20.45;;;24.20;99.90;;;;;;5093762;28;20204;-63
2021/06/09 07:31:23;;;;;;;22.92;20.52;;;24.30;99.90;;;;;;5094114;28;20220;-61
2021/06/09 07:33:50;;;;;;;20.25;18.25;;;24.10;99.90;;;;;;5093826;28;20208;-61
2021/06/09 07:36:20;;;;;;;21.13;18.92;;;24.20;99.90;;;;;;5093459;28;20208;-61
2021/06/09 07:38:55;;;;;;;19.85;17.90;;;24.40;99.90;;;;;;5093474;28;20217;-61
2021/06/09 07:41:25;;;;;;;22.20;20.00;;;24.60;99.90;;;;;;5093433;28;20231;-61
2021/06/09 07:43:53;;;;;;;22.10;19.73;;;24.70;99.90;;;;;;5093490;28;20214;-62
2021/06/09 07:46:27;;;;;;;23.10;20.70;;;24.80;99.90;;;;;;5082286;28;21063;-65
2021/06/09 07:48:56;;;;;;;22.45;20.13;;;24.70;99.90;;;;;;5072847;28;20563;-61
2021/06/09 07:51:23;;;;;;;20.95;18.35;;;24.70;99.90;;;;;;5093305;22;20240;-59
2021/06/09 07:53:52;;;;;;;21.05;18.85;;;24.70;99.90;;;;;;5092852;28;20291;-59
2021/06/09 07:56:20;;;;;;;21.98;19.75;;;24.90;99.90;;;;;;5092581;28;20632;-59
2021/06/09 07:58:48;;;;;;;26.75;24.15;;;25.10;99.90;;;;;;5092764;28;20214;-60
2021/06/09 08:01:15;;;;;;;21.15;18.85;;;25.30;99.90;;;;;;5092758;28;20224;-60
2021/06/09 08:03:43;;;;;;;21.88;19.65;;;25.60;99.90;;;;;;5092245;28;20254;-59
2021/06/09 08:06:11;;;;;;;23.25;20.85;;;25.70;99.90;;;;;;5092490;28;20210;-60
2021/06/09 08:08:38;;;;;;;21.90;19.63;;;25.90;99.90;;;;;;5092282;28;20676;-60
2021/06/09 08:11:07;;;;;;;23.35;20.20;;;26.10;99.90;;;;;;5092599;28;20707;-60
2021/06/09 08:13:34;;;;;;;21.15;18.95;;;26.50;99.90;;;;;;5092460;28;20201;-61
2021/06/09 08:16:01;;;;;;;19.52;17.25;;;27.10;99.90;;;;;;5092795;28;20208;-60
2021/06/09 08:18:28;;;;;;;20.85;17.88;;;27.90;99.90;;;;;;5093080;28;20234;-60
2021/06/09 08:21:07;;;;;;;19.88;17.67;;;28.40;99.90;;;;;;5092456;28;20228;-59
2021/06/09 08:23:35;;;;;;;18.45;16.85;;;28.70;99.90;;;;;;5093330;28;20208;-60
2021/06/09 08:26:02;;;;;;;17.92;16.33;;;29.20;99.90;;;;;;5092209;28;20220;-61
2021/06/09 08:28:29;;;;;;;17.15;15.55;;;29.50;99.90;;;;;;5091809;28;20224;-60
2021/06/09 08:30:56;;;;;;;18.45;16.65;;;29.70;99.30;;;;;;5092698;28;20281;-61
2021/06/09 08:33:29;;;;;;;17.25;15.55;;;30.40;98.20;;;;;;5092342;28;20204;-58
2021/06/09 08:35:55;;;;;;;18.25;15.23;;;31.20;96.80;;;;;;5092447;28;20219;-58
2021/06/09 08:38:21;;;;;;;16.17;14.48;;;32.10;94.30;;;;;;5091749;28;20581;-59
2021/06/09 08:40:50;;;;;;;15.95;14.02;;;33.60;92.00;;;;;;5091952;28;20223;-59
2021/06/09 08:43:17;;;;;;;14.75;13.25;;;35.30;85.80;;;;;;5091906;28;20201;-58
2021/06/09 08:45:47;;;;;;;14.60;13.05;;;36.30;78.20;;;;;;5091558;28;20208;-59
2021/06/09 08:48:13;;;;;;;15.40;13.80;;;36.50;75.40;;;;;;5092241;28;20672;-59
2021/06/09 08:50:41;;;;;;;16.20;14.68;;;36.50;72.90;;;;;;5092166;28;20224;-59
2021/06/09 08:53:09;;;;;;;16.55;14.73;;;36.20;72.50;;;;;;5091664;28;20681;-59
2021/06/09 08:55:54;;;;;;;14.70;13.32;;;35.70;72.90;;;;;;5091604;28;20212;-59
2021/06/09 08:58:22;;;;;;;17.08;15.38;;;35.10;74.70;;;;;;5091552;28;20632;-59
2021/06/09 09:00:49;;;;;;;15.10;13.60;;;34.10;75.20;;;;;;5091767;28;20239;-59
2021/06/09 09:03:15;;;;;;;16.70;15.20;;;33.00;79.30;;;;;;5091777;28;20204;-59
2021/06/09 09:05:41;;;;;;;17.05;15.10;;;32.30;82.00;;;;;;5092502;28;20207;-59
2021/06/09 09:08:08;;;;;;;16.10;14.43;;;31.60;83.80;;;;;;5091330;28;20204;-59
2021/06/09 09:10:35;;;;;;;17.08;15.50;;;31.10;85.40;;;;;;5091116;28;20208;-59
2021/06/09 09:13:19;;;;;;;16.60;15.00;;;30.40;87.50;;;;;;5070691;28;20216;-60
2021/06/09 09:15:47;;;;;;;16.65;15.00;;;29.90;88.90;;;;;;5070975;28;20205;-60
2021/06/09 09:18:26;;;;;;;18.00;14.73;;;29.40;90.60;;;;;;5071168;28;20576;-60
2021/06/09 09:20:57;;;;;;;17.08;13.63;;;29.00;91.50;;;;;;5070763;28;20236;-62
2021/06/09 09:23:28;;;;;;;15.95;14.40;;;28.60;92.60;;;;;;5070392;28;20205;-61
2021/06/09 09:25:57;;;;;;;16.30;14.80;;;28.50;93.30;;;;;;5070773;28;20209;-63
2021/06/09 09:28:28;;;;;;;15.00;13.60;;;28.60;93.60;;;;;;5071459;28;20207;-62
2021/06/09 09:31:05;;;;;;;15.55;13.98;;;28.70;93.30;;;;;;5071012;28;20233;-62
2021/06/09 09:33:32;;;;;;;15.63;14.20;;;28.70;93.20;;;;;;5071068;28;20201;-62
2021/06/09 09:35:58;;;;;;;17.23;13.65;;;28.80;93.40;;;;;;5070745;28;20205;-62
2021/06/09 09:38:30;;;;;;;14.40;13.10;;;28.90;93.40;;;;;;5071114;28;20209;-63
2021/06/09 09:41:04;;;;;;;15.57;13.65;;;28.90;93.10;;;;;;5070887;28;20752;-63
2021/06/09 09:43:48;;;;;;;14.38;13.07;;;29.10;93.00;;;;;;5070921;28;20267;-64
2021/06/09 09:46:18;;;;;;;16.48;14.52;;;29.00;92.70;;;;;;5070928;28;20205;-60
2021/06/09 09:49:18;;;;;;;14.25;12.82;;;28.90;93.10;;;;;;5071095;28;20223;-60
2021/06/09 09:51:59;;;;;;;15.45;14.02;;;28.90;93.60;;;;;;4989339;28;20236;-61
2021/06/09 09:54:34;;;;;;;14.00;12.48;;;29.10;93.30;;;;;;4988526;28;20459;-60
2021/06/09 09:57:02;;;;;;;14.25;12.88;;;29.40;93.20;;;;;;5038081;28;20216;-61
2021/06/09 09:59:31;;;;;;;15.82;14.25;;;29.60;92.60;;;;;;5070851;28;20227;-61
2021/06/09 10:02:02;;;;;;;14.98;13.55;;;29.50;92.30;;;;;;5070747;28;20231;-61
2021/06/09 10:04:30;;;;;;;16.50;14.07;;;29.10;92.90;;;;;;5070499;28;20650;-60
2021/06/09 10:06:57;;;;;;;16.42;14.98;;;28.70;93.30;;;;;;5070723;28;20810;-60
2021/06/09 10:09:25;;;;;;;14.13;12.82;;;28.50;93.90;;;;;;5070490;28;20235;-61
2021/06/09 10:11:53;;;;;;;14.88;13.38;;;28.30;94.20;;;;;;5070547;28;20307;-60
2021/06/09 10:14:22;;;;;;;15.88;14.27;;;28.20;94.20;;;;;;5070284;28;20208;-60
2021/06/09 10:16:55;;;;;;;15.50;13.48;;;28.20;94.00;;;;;;5070694;28;20763;-61
2021/06/09 10:19:23;;;;;;;12.57;11.20;;;28.20;94.40;;;;;;5070532;28;20224;-61
2021/06/09 10:21:54;;;;;;;14.30;12.82;;;28.20;94.70;;;;;;5070410;28;20229;-60
2021/06/09 10:24:22;;;;;;;13.90;12.57;;;28.40;94.30;;;;;;5070469;28;20809;-60
2021/06/09 10:26:57;;;;;;;14.35;12.95;;;28.40;94.00;;;;;;5070639;28;20209;-61
2021/06/09 10:29:24;;;;;;;14.75;13.32;;;28.30;94.20;;;;;;5070311;28;20625;-60
2021/06/09 10:31:53;;;;;;;13.38;12.13;;;28.30;94.30;;;;;;5070628;28;20571;-60
2021/06/09 10:34:22;;;;;;;12.80;11.57;;;28.40;94.50;;;;;;5070787;28;20215;-60
2021/06/09 10:36:50;;;;;;;13.90;12.50;;;28.30;95.10;;;;;;5070835;28;20212;-61
2021/06/09 10:39:19;;;;;;;14.23;12.77;;;28.30;95.10;;;;;;5070963;28;20692;-61
2021/06/09 10:41:47;;;;;;;11.85;10.65;;;28.30;94.90;;;;;;5070181;28;20328;-60
2021/06/09 10:44:17;;;;;;;11.93;10.82;;;28.60;94.40;;;;;;5070358;28;20216;-60
2021/06/09 10:46:46;;;;;;;10.85;9.85;;;29.00;94.10;;;;;;5070461;28;20212;-63
2021/06/09 10:49:14;;;;;;;11.80;10.65;;;29.50;93.10;;;;;;5069865;28;20212;-65
2021/06/09 10:51:57;;;;;;;11.98;10.75;;;29.80;92.30;;;;;;5068216;28;20236;-63
2021/06/09 10:54:24;;;;;;;12.20;10.82;;;29.90;91.80;;;;;;5070353;28;20589;-62
2021/06/09 10:56:52;;;;;;;11.02;10.00;;;29.70;91.80;;;;;;5073763;28;20254;-61
2021/06/09 10:59:21;;;;;;;10.88;9.77;;;29.50;91.80;;;;;;5073151;28;20608;-61
2021/06/09 11:01:49;;;;;;;11.02;9.85;;;29.40;92.20;;;;;;5073600;28;20229;-64
2021/06/09 11:04:17;;;;;;;10.43;9.43;;;29.20;92.10;;;;;;5073701;28;20216;-63
2021/06/09 11:06:48;;;;;;;11.00;9.90;;;29.10;92.50;;;;;;5073690;28;20665;-62
2021/06/09 11:09:21;;;;;;;11.27;9.02;;;29.30;92.20;;;;;;5073497;28;20283;-61
2021/06/09 11:12:09;;;;;;;9.82;8.88;;;29.80;91.30;;;;;;5072962;28;20228;-61
2021/06/09 11:14:45;;;;;;;10.27;9.27;;;30.00;90.90;;;;;;5073004;28;20209;-62
2021/06/09 11:17:12;;;;;;;9.40;8.60;;;30.40;90.00;;;;;;5073291;28;20216;-62
2021/06/09 11:19:40;;;;;;;9.85;8.85;;;30.70;88.30;;;;;;5073037;28;20711;-61
2021/06/09 11:22:39;;;;;;;9.82;8.60;;;30.80;88.60;;;;;;5073022;28;20228;-62
2021/06/09 11:25:14;;;;;;;12.98;9.93;;;31.20;87.00;;;;;;5072647;28;20224;-63
2021/06/09 11:27:56;;;;;;;9.70;8.80;;;31.50;85.90;;;;;;5073038;28;20208;-62
2021/06/09 11:30:48;;;;;;;11.32;10.32;;;31.70;86.10;;;;;;5072963;28;20296;-62
2021/06/09 11:33:46;;;;;;;10.75;9.75;;;31.60;84.30;;;;;;5073054;28;20212;-63
2021/06/09 11:36:36;;;;;;;11.38;10.27;;;31.00;87.00;;;;;;5072854;28;20204;-62
2021/06/09 11:39:10;;;;;;;10.95;9.95;;;30.70;88.50;;;;;;5072599;28;20213;-61
2021/06/09 11:41:39;;;;;;;10.57;9.57;;;31.00;87.70;;;;;;5072455;28;20256;-62
2021/06/09 11:44:06;;;;;;;10.55;9.65;;;31.30;85.80;;;;;;5072503;28;20258;-62
2021/06/09 11:46:34;;;;;;;10.73;9.68;;;31.40;85.50;;;;;;5073012;28;20212;-62
2021/06/09 11:49:03;;;;;;;10.40;9.32;;;31.40;86.60;;;;;;5072836;28;20205;-61
2021/06/09 11:51:34;;;;;;;10.38;9.30;;;30.90;86.80;;;;;;5072340;28;20241;-61
2021/06/09 11:54:15;;;;;;;9.82;8.93;;;30.40;88.00;;;;;;5072457;28;20201;-61
2021/06/09 11:56:43;;;;;;;10.73;9.73;;;30.20;89.50;;;;;;5072573;28;20209;-61
2021/06/09 11:59:22;;;;;;;12.02;10.93;;;30.10;89.00;;;;;;5072397;28;20584;-61
2021/06/09 12:01:48;;;;;;;11.63;10.55;;;30.10;88.20;;;;;;5072205;28;20315;-63
2021/06/09 12:04:20;;;;;;;12.43;11.23;;;30.10;89.50;;;;;;5072567;28;20653;-62
2021/06/09 12:06:49;;;;;;;12.07;10.85;;;29.90;91.00;;;;;;5072605;28;20698;-62
2021/06/09 12:09:19;;;;;;;14.07;11.52;;;29.70;92.00;;;;;;5072515;28;20212;-62
2021/06/09 12:11:47;;;;;;;12.85;11.60;;;29.70;91.90;;;;;;5072433;28;20229;-61
2021/06/09 12:14:25;;;;;;;13.68;12.35;;;29.70;92.00;;;;;;5071932;28;20562;-61
2021/06/09 12:16:54;;;;;;;13.70;12.30;;;29.70;94.00;;;;;;5072460;28;20208;-61
2021/06/09 12:19:26;;;;;;;9.88;8.85;;;29.70;93.40;;;;;;5072360;28;20201;-62
2021/06/09 12:21:58;;;;;;;9.20;8.40;;;29.60;90.00;;;;;;5072258;28;20225;-62
2021/06/09 12:24:26;;;;;;;9.15;8.30;;;29.40;89.10;;;;;;5073273;28;20254;-61
2021/06/09 12:26:54;;;;;;;11.65;10.55;;;29.60;88.40;;;;;;5072435;28;20209;-60
2021/06/09 12:29:24;;;;;;;12.18;11.07;;;30.00;89.80;;;;;;5072949;28;20273;-62
2021/06/09 12:31:51;;;;;;;11.73;10.52;;;30.00;90.10;;;;;;5072407;28;20229;-63
2021/06/09 12:34:26;;;;;;;11.00;10.00;;;30.00;90.70;;;;;;5072788;28;20216;-61
2021/06/09 12:36:54;;;;;;;11.85;10.55;;;30.00;91.30;;;;;;5073558;28;20215;-61
2021/06/09 12:39:23;;;;;;;11.73;9.85;;;30.10;91.60;;;;;;5072728;28;20517;-62